Terminal Aerodrome Forecast
Issued by NWS Caribou, ME

Home | Current Version | Previous Version | Text Only | Print | Product List | Glossary On
Versions: 1 2 3 4 5 6 7 8 9 10 11 12 13 14 15 16 17 18 19 20 21 22 23 24 25 26 27 28 29 30 31 32 33 34 35 36
000
FTUS41 KCAR 301731
TAFCAR
TAF
KCAR 301731Z 3018/3118 31013G25KT P6SM BKN035
     FM302300 32009KT P6SM FEW045
     FM310300 36003KT P6SM SCT050
     FM310700 VRB02KT P6SM -SHRA OVC040
     FM310900 34004KT 5SM -SHRA OVC028
     FM311100 33006KT 6SM -SHRA OVC014
     FM311500 31012G22KT P6SM VCSH BKN022=

USA.gov is the U.S. government's official web portal to all federal, state and local government web resources and services.